Main page
METAR-TAF:

METAR-TAF

Airports :

Beijing Capital International Airport

Beijing, China

latitude: 39-56N, longitude: 116-17E, elevation: 55 m

Current weather observation

The report was made 13 minutes ago, at 14:00 UTC
Wind 2 kt from the East/Southeast
Temperature 0°C
Humidity 51%
Pressure 1029 hPa
Visibility 10 km or more
no clouds below 1500 m and no cumulonimbus

METAR: ZBAA 221400Z 12001MPS CAVOK M00/M09 Q1029 NOSIG

Time: 22:13 (14:13 UTC)

Forecast

The report was made 4 hours and 53 minutes ago, at 09:20 UTC
Forecast valid from 22 at 12 UTC to 23 at 12 UTC
Wind 8 kt from the South/Southwest
Visibility 10 km or more
no clouds below 1500 m and no cumulonimbus

TAF: ZBAA 220920Z 2212/2312 21004MPS CAVOK TX12/2307Z TNM03/2221Z

Weather observations and forecasts of more than 4000 airports (METAR and TAF reports).

The available stations are represented by yellow and red dots on the map.

Hover mouse over dot to see the name of the station.

Then click to see weather observations and forecasts.

To change the map : click on the green buttons with a black cross to zoom in, on the green button with a dash to zoom out, or on the green arrows for adjacent maps.


METAR-TAF: